This is the latest recevied weather packets stored in our database for station/object IW2HNF-3. If no packets are shown the sender has not sent any weather packets the latest 1 day(s).
| Time | Temp. | Humidity | Pressure | Rain* | Wind** | Luminosity | Snow |
|---|---|---|---|---|---|---|---|
| 1778098259 | 10° C | 99% | 1009.2 hPa | 0 mm | - | - | - |
| 1778098067 | 10° C | 99% | 1009.1 hPa | 0 mm | - | - | - |
| 1778095859 | 10° C | 99% | 1008.5 hPa | 1.02 mm | - | - | - |
| 1778095235 | 10° C | 99% | 1008.2 hPa | 3.05 mm | - | - | - |
| 1778094659 | 10° C | 99% | 1008 hPa | 7.11 mm | - | - | - |
| 1778094035 | 10° C | 99% | 1007.5 hPa | 7.62 mm | - | - | - |
| 1778092835 | 10° C | 99% | 1008.2 hPa | 7.11 mm | - | - | - |
| 1778092259 | 10.56° C | 99% | 1008.9 hPa | 6.6 mm | - | - | - |
| 1778091635 | 10.56° C | 99% | 1008.9 hPa | 4.57 mm | - | - | - |
| 1778088660 | 11.11° C | 99% | 1006.8 hPa | 0 mm | - | - | - |
| 1778086259 | 11.11° C | 99% | 1006.5 hPa | 0 mm | - | - | - |
| 1778085635 | 11.11° C | 99% | 1006.5 hPa | 0 mm | - | - | - |
| 1778085060 | 11.11° C | 99% | 1006.4 hPa | 0 mm | - | - | - |
| 1778083379 | 11.67° C | 99% | 1005.3 hPa | 0 mm | - | - | - |
| 1778077859 | 10° C | 99% | 1006.3 hPa | 87.38 mm | - | - | - |
| 1778076660 | 10° C | 98% | 1006.1 hPa | 77.47 mm | - | - | - |
| 1778071859 | 15.56° C | 88% | 1006.5 hPa | 0.25 mm | - | - | - |
| 1778069460 | 16.11° C | 84% | 1006.2 hPa | 0.25 mm | - | - | - |
| 1778069124 | 16.67° C | 82% | 1006.4 hPa | 0 mm | - | - | - |
| 1778066436 | 15.56° C | 86% | 1006.5 hPa | 0 mm | - | - | - |
| 1778065860 | 15° C | 87% | 1006.8 hPa | 0 mm | - | - | - |
| 1778064036 | 15° C | 90% | 1007 hPa | 0 mm | - | - | - |
| 1778063460 | 15° C | 93% | 1006.8 hPa | 0 mm | - | - | - |
| 1778062164 | 13.89° C | 99% | 1007 hPa | 0 mm | - | - | - |
| 1778060436 | 13.33° C | 98% | 1007 hPa | 1.78 mm | - | - | - |
* Rain latest hour (hover to see other rain measurements)
** Current wind speed in m/s (hover to see current wind gust speed)